createdAt,value
2022-10-05T00:02:22.725Z,7.00
2022-10-05T00:05:30.837Z,6.60
2022-10-05T00:08:34.536Z,5.55
2022-10-05T00:11:36.864Z,6.13
2022-10-05T00:14:40.540Z,6.35
2022-10-05T00:17:42.915Z,6.85
2022-10-05T00:20:45.799Z,6.20
2022-10-05T00:23:48.361Z,6.57
2022-10-05T00:26:55.373Z,5.78
2022-10-05T00:30:10.986Z,6.47
2022-10-05T00:33:14.403Z,6.70
2022-10-05T00:36:16.941Z,6.90
2022-10-05T00:39:20.792Z,7.10
2022-10-05T00:42:32.524Z,5.68
2022-10-05T00:45:40.299Z,6.18
2022-10-05T00:48:46.392Z,6.55
2022-10-05T00:51:51.831Z,6.35
2022-10-05T00:55:00.431Z,6.22
2022-10-05T00:58:09.004Z,7.22
2022-10-05T01:01:14.109Z,7.28
2022-10-05T01:04:20.103Z,6.97
2022-10-05T01:07:29.667Z,6.38
2022-10-05T01:10:35.422Z,6.88
2022-10-05T01:13:45.684Z,6.47
2022-10-05T01:16:53.097Z,6.03
2022-10-05T01:20:29.271Z,5.80
2022-10-05T01:23:54.803Z,6.93
2022-10-05T01:27:08.603Z,7.63
2022-10-05T01:30:13.985Z,7.18
2022-10-05T01:33:20.702Z,6.57
2022-10-05T01:36:29.505Z,6.95
2022-10-05T01:39:38.168Z,7.03
2022-10-05T01:42:47.895Z,6.80
2022-10-05T01:45:59.329Z,6.68
2022-10-05T01:49:13.443Z,6.68
2022-10-05T01:52:26.344Z,6.82
2022-10-05T01:55:36.189Z,7.13
2022-10-05T01:58:44.755Z,6.38
2022-10-05T02:01:55.387Z,6.10
2022-10-05T02:05:03.312Z,6.68
2022-10-05T02:08:09.737Z,6.38
2022-10-05T02:11:13.230Z,7.53
2022-10-05T02:14:18.579Z,7.45
2022-10-05T02:17:26.373Z,7.63
2022-10-05T02:20:31.855Z,7.38
2022-10-05T02:23:36.487Z,8.27
2022-10-05T02:26:39.717Z,7.30
2022-10-05T02:29:43.324Z,7.22
2022-10-05T02:32:51.423Z,8.18
2022-10-05T02:35:53.938Z,8.88
2022-10-05T02:39:01.128Z,7.90
2022-10-05T02:42:08.522Z,7.78
2022-10-05T02:45:19.805Z,7.60
2022-10-05T02:48:30.641Z,8.70
2022-10-05T02:51:36.022Z,7.30
2022-10-05T02:54:45.006Z,6.68
2022-10-05T02:57:49.766Z,6.65
2022-10-05T03:00:58.417Z,7.03
2022-10-05T03:04:09.012Z,6.82
2022-10-05T03:07:23.773Z,7.80
2022-10-05T03:10:30.194Z,8.38
2022-10-05T03:13:40.399Z,8.02
2022-10-05T03:16:50.673Z,8.45
2022-10-05T03:20:07.942Z,8.27
2022-10-05T03:23:14.223Z,7.97
2022-10-05T03:26:32.313Z,10.77
2022-10-05T03:29:39.116Z,8.05
2022-10-05T03:32:51.265Z,8.38
2022-10-05T03:35:59.302Z,8.27
2022-10-05T03:39:07.571Z,7.93
2022-10-05T03:42:17.704Z,8.00
2022-10-05T03:45:25.356Z,7.53
2022-10-05T03:48:31.003Z,8.30
2022-10-05T03:51:36.371Z,7.45
2022-10-05T03:54:41.439Z,6.78
2022-10-05T03:57:45.169Z,7.90
2022-10-05T04:00:52.065Z,8.10
2022-10-05T04:03:58.314Z,7.47
2022-10-05T04:07:04.811Z,8.07
2022-10-05T04:10:13.294Z,8.50
2022-10-05T04:13:20.676Z,9.25
2022-10-05T04:16:27.845Z,8.45
2022-10-05T04:19:33.255Z,9.82
2022-10-05T04:22:39.525Z,8.60
2022-10-05T04:25:44.079Z,9.68
2022-10-05T04:28:55.777Z,8.82
2022-10-05T04:32:16.753Z,8.43
2022-10-05T04:35:30.276Z,8.07
2022-10-05T04:38:46.180Z,9.05
2022-10-05T04:42:00.593Z,8.05
2022-10-05T04:45:11.784Z,8.65
2022-10-05T04:48:35.075Z,8.00
2022-10-05T04:51:47.736Z,8.02
2022-10-05T04:55:02.484Z,8.73
2022-10-05T04:58:10.939Z,8.73
2022-10-05T05:01:26.351Z,8.68
2022-10-05T05:04:42.661Z,8.30
2022-10-05T05:07:49.191Z,9.05
2022-10-05T05:11:04.810Z,8.32
2022-10-05T05:14:20.160Z,7.93
2022-10-05T05:17:33.195Z,8.13
2022-10-05T05:20:48.211Z,7.88
2022-10-05T05:23:59.195Z,9.40
2022-10-05T05:27:37.268Z,8.65
2022-10-05T05:30:52.971Z,8.80
2022-10-05T05:34:01.081Z,9.57
2022-10-05T05:37:21.451Z,8.45
2022-10-05T05:40:27.730Z,7.22
2022-10-05T05:43:40.480Z,8.65
2022-10-05T05:47:04.051Z,7.97
2022-10-05T05:50:22.218Z,8.60
2022-10-05T05:53:28.425Z,9.18
2022-10-05T05:56:32.977Z,8.10
2022-10-05T05:59:49.506Z,7.70
2022-10-05T06:02:55.400Z,8.50
2022-10-05T06:05:59.922Z,7.80
2022-10-05T06:09:05.724Z,8.23
2022-10-05T06:12:17.966Z,9.32
2022-10-05T06:15:40.350Z,7.35
2022-10-05T06:18:46.094Z,7.72
2022-10-05T06:21:53.582Z,8.15
2022-10-05T06:25:04.572Z,8.32
2022-10-05T06:28:11.171Z,8.70
2022-10-05T06:31:31.508Z,7.43
2022-10-05T06:34:56.945Z,7.40
2022-10-05T06:38:20.933Z,8.07
2022-10-05T06:41:32.096Z,7.85
2022-10-05T06:44:39.937Z,8.05
2022-10-05T06:48:09.187Z,8.23
2022-10-05T06:51:38.086Z,8.60
2022-10-05T06:54:51.929Z,8.32
2022-10-05T06:58:04.072Z,8.30
2022-10-05T07:01:10.987Z,7.15
2022-10-05T07:04:44.341Z,7.95
2022-10-05T07:07:50.543Z,7.75
2022-10-05T07:11:03.993Z,8.95
2022-10-05T07:14:17.552Z,7.78
2022-10-05T07:17:30.662Z,7.57
2022-10-05T07:20:49.009Z,8.30
2022-10-05T07:24:00.753Z,7.63
2022-10-05T07:27:10.663Z,8.23
2022-10-05T07:30:14.388Z,8.23
2022-10-05T07:33:21.080Z,8.60
2022-10-05T07:36:54.595Z,7.95
2022-10-05T07:40:06.766Z,9.25
2022-10-05T07:43:20.521Z,8.40
2022-10-05T07:46:28.413Z,8.48
2022-10-05T07:49:35.528Z,8.75
2022-10-05T07:52:41.334Z,8.98
2022-10-05T07:55:51.078Z,8.45
2022-10-05T07:58:58.413Z,9.15
2022-10-05T08:02:07.624Z,9.90
2022-10-05T08:05:13.482Z,9.50
2022-10-05T08:08:21.968Z,8.45
2022-10-05T08:11:27.976Z,9.75
2022-10-05T08:14:34.780Z,9.73
2022-10-05T08:17:47.117Z,9.98
2022-10-05T08:20:52.640Z,10.38
2022-10-05T08:23:58.961Z,11.75
2022-10-05T08:27:04.917Z,9.98
2022-10-05T08:30:11.318Z,10.77
2022-10-05T08:33:17.576Z,10.60
2022-10-05T08:36:22.046Z,9.93
2022-10-05T08:39:28.488Z,10.73
2022-10-05T08:42:41.904Z,10.70
2022-10-05T08:46:13.062Z,10.38
2022-10-05T08:49:39.132Z,10.40
2022-10-05T08:53:02.396Z,11.32
2022-10-05T08:56:28.644Z,10.88
2022-10-05T08:59:51.046Z,9.60
2022-10-05T09:03:12.793Z,10.40
2022-10-05T09:06:43.578Z,10.20
2022-10-05T09:10:50.295Z,10.63
2022-10-05T09:14:24.853Z,10.73
2022-10-05T09:18:00.378Z,8.25
2022-10-05T09:21:07.188Z,11.00
2022-10-05T09:24:31.620Z,10.40
2022-10-05T09:27:47.707Z,9.75
2022-10-05T09:31:21.566Z,9.02
2022-10-05T09:35:03.905Z,8.25
2022-10-05T09:38:13.199Z,9.80
2022-10-05T09:41:37.267Z,8.02
2022-10-05T09:45:21.388Z,7.63
2022-10-05T09:49:14.054Z,8.65
2022-10-05T09:57:57.002Z,7.75
2022-10-05T10:01:33.563Z,7.50
2022-10-05T10:05:07.218Z,6.93
2022-10-05T10:08:28.829Z,7.05
2022-10-05T10:15:07.269Z,6.28
2022-10-05T10:18:36.843Z,6.55
2022-10-05T10:22:24.727Z,4.70
2022-10-05T10:26:08.727Z,5.80
2022-10-05T10:32:59.877Z,5.22
2022-10-05T10:36:06.988Z,4.82
2022-10-05T10:39:14.927Z,5.07
2022-10-05T10:42:37.577Z,5.28
2022-10-05T10:45:49.590Z,4.63
2022-10-05T10:49:06.898Z,4.05
2022-10-05T10:52:20.560Z,4.40
2022-10-05T10:55:39.050Z,3.97
2022-10-05T10:59:19.862Z,3.88
2022-10-05T11:02:48.486Z,4.57
2022-10-05T11:06:14.322Z,3.17
2022-10-05T11:09:28.743Z,3.75
2022-10-05T11:13:09.383Z,3.67
2022-10-05T11:16:45.935Z,4.10
2022-10-05T11:20:04.998Z,3.00
2022-10-05T11:23:34.138Z,3.17
2022-10-05T11:26:53.980Z,2.20
2022-10-05T11:30:25.330Z,1.70
2022-10-05T11:33:54.101Z,1.90
2022-10-05T11:37:20.291Z,1.60
2022-10-05T11:40:57.362Z,1.77
2022-10-05T11:44:40.076Z,1.83
2022-10-05T11:47:52.019Z,1.73
2022-10-05T11:51:27.780Z,1.92
2022-10-05T11:58:21.915Z,1.48
2022-10-05T12:01:28.829Z,1.70
2022-10-05T12:04:40.564Z,2.05
2022-10-05T12:07:47.580Z,1.40
2022-10-05T12:11:01.013Z,2.33
2022-10-05T12:14:13.932Z,1.75
2022-10-05T12:17:21.345Z,1.27
2022-10-05T12:20:29.353Z,1.50
2022-10-05T12:23:38.268Z,1.30
2022-10-05T12:26:45.076Z,1.70
2022-10-05T12:29:56.527Z,1.70
2022-10-05T12:33:09.963Z,1.58
2022-10-05T12:36:22.994Z,1.30
2022-10-05T12:39:58.201Z,1.50
2022-10-05T12:43:44.020Z,1.50
2022-10-05T12:55:06.278Z,1.33
2022-10-05T13:03:14.454Z,1.30
2022-10-05T13:07:37.802Z,1.48
2022-10-05T13:10:57.884Z,1.38
2022-10-05T13:15:36.344Z,1.83
2022-10-05T13:19:20.090Z,1.58
2022-10-05T13:38:18.824Z,1.55
2022-10-05T13:57:45.841Z,1.48
2022-10-05T14:05:55.806Z,1.60
2022-10-05T14:09:36.855Z,1.45
2022-10-05T14:12:55.448Z,1.48
2022-10-05T14:16:27.877Z,2.13
2022-10-05T14:23:58.762Z,1.60
2022-10-05T14:27:21.847Z,1.88
2022-10-05T14:30:40.496Z,1.77
2022-10-05T14:37:32.755Z,1.95
2022-10-05T14:40:39.219Z,1.42
2022-10-05T14:43:52.884Z,1.80
2022-10-05T14:47:04.398Z,1.73
2022-10-05T14:50:15.968Z,1.92
2022-10-05T14:56:35.331Z,1.67
2022-10-05T14:59:54.806Z,1.90
2022-10-05T15:03:18.711Z,1.45
2022-10-05T15:06:23.370Z,1.25
2022-10-05T15:09:42.130Z,1.40
2022-10-05T15:12:48.289Z,1.63
2022-10-05T15:15:54.523Z,1.58
2022-10-05T15:19:04.397Z,1.40
2022-10-05T15:22:18.752Z,1.27
2022-10-05T15:25:27.841Z,1.23
2022-10-05T15:28:36.009Z,1.83
2022-10-05T15:31:41.689Z,1.90
2022-10-05T15:35:00.365Z,1.60
2022-10-05T15:38:08.693Z,1.70
2022-10-05T15:41:16.566Z,1.70
2022-10-05T15:44:26.204Z,1.45
2022-10-05T15:47:43.674Z,1.25
2022-10-05T15:50:59.154Z,1.40
2022-10-05T15:54:24.118Z,1.77
2022-10-05T15:57:34.025Z,1.63
2022-10-05T16:00:40.103Z,1.30
2022-10-05T16:03:51.225Z,1.45
2022-10-05T16:07:17.492Z,1.58
2022-10-05T16:10:24.215Z,1.88
2022-10-05T16:13:29.724Z,1.85
2022-10-05T16:16:37.462Z,1.40
2022-10-05T16:19:46.422Z,1.80
2022-10-05T16:22:59.437Z,1.60
2022-10-05T16:26:11.550Z,1.80
2022-10-05T16:29:16.909Z,1.60
2022-10-05T16:32:20.636Z,2.10
2022-10-05T16:35:30.773Z,1.80
2022-10-05T16:38:39.266Z,1.48
2022-10-05T16:41:47.548Z,2.13
2022-10-05T16:44:56.264Z,2.47
2022-10-05T16:48:05.140Z,2.22
2022-10-05T16:51:19.719Z,2.67
2022-10-05T16:54:25.046Z,2.45
2022-10-05T16:57:30.443Z,1.35
2022-10-05T17:00:44.564Z,1.15
2022-10-05T17:03:55.984Z,1.40
2022-10-05T17:07:11.303Z,1.30
2022-10-05T17:10:49.041Z,1.35
2022-10-05T17:14:02.589Z,1.58
2022-10-05T17:17:21.672Z,1.25
2022-10-05T17:20:32.019Z,1.58
2022-10-05T17:23:51.562Z,1.70
2022-10-05T17:26:59.223Z,1.75
2022-10-05T17:30:23.945Z,1.80
2022-10-05T17:33:27.636Z,1.60
2022-10-05T17:36:37.490Z,2.33
2022-10-05T17:39:52.533Z,1.65
2022-10-05T17:43:01.266Z,2.05
2022-10-05T17:46:04.147Z,2.20
2022-10-05T17:49:36.108Z,2.17
2022-10-05T17:53:01.287Z,3.08
2022-10-05T17:56:05.286Z,2.40
2022-10-05T17:59:09.044Z,2.60
2022-10-05T18:02:18.155Z,2.20
2022-10-05T18:05:27.569Z,2.33
2022-10-05T18:08:37.492Z,2.75
2022-10-05T18:11:41.819Z,2.72
2022-10-05T18:15:00.112Z,2.28
2022-10-05T18:18:36.537Z,2.60
2022-10-05T18:21:39.075Z,2.42
2022-10-05T18:24:55.728Z,3.10
2022-10-05T18:28:10.243Z,3.10
2022-10-05T18:31:24.722Z,2.10
2022-10-05T18:34:31.254Z,2.30
2022-10-05T18:37:42.019Z,2.17
2022-10-05T18:40:50.931Z,2.83
2022-10-05T18:44:04.210Z,2.00
2022-10-05T18:47:17.624Z,2.33
2022-10-05T18:50:26.041Z,2.50
2022-10-05T18:53:37.016Z,2.17
2022-10-05T18:56:43.996Z,2.20
2022-10-05T18:59:53.389Z,2.00
2022-10-05T19:03:00.195Z,2.33
2022-10-05T19:06:13.022Z,2.03
2022-10-05T19:09:25.230Z,1.98
2022-10-05T19:12:41.261Z,1.88
2022-10-05T19:15:47.435Z,2.00
2022-10-05T19:19:01.377Z,2.15
2022-10-05T19:22:08.077Z,2.15
2022-10-05T19:25:21.800Z,2.25
2022-10-05T19:28:31.405Z,1.92
2022-10-05T19:31:39.428Z,1.92
2022-10-05T19:34:54.135Z,2.42
2022-10-05T19:38:11.740Z,2.22
2022-10-05T19:41:18.977Z,2.03
2022-10-05T19:44:31.570Z,2.03
2022-10-05T19:47:41.568Z,2.15
2022-10-05T19:50:53.693Z,2.40
2022-10-05T19:53:58.837Z,1.83
2022-10-05T19:57:02.548Z,1.95
2022-10-05T20:00:05.642Z,1.92
2022-10-05T20:03:10.501Z,1.90
2022-10-05T20:06:14.063Z,1.83
2022-10-05T20:09:23.639Z,1.65
2022-10-05T20:12:52.337Z,1.65
2022-10-05T20:16:27.706Z,1.92
2022-10-05T20:19:57.967Z,1.55
2022-10-05T20:23:21.519Z,2.10
2022-10-05T20:27:05.409Z,1.45
2022-10-05T20:30:09.808Z,1.35
2022-10-05T20:33:14.607Z,1.25
2022-10-05T20:36:16.818Z,1.98
2022-10-05T20:39:21.305Z,1.33
2022-10-05T20:42:24.500Z,1.90
2022-10-05T20:45:26.812Z,1.60
2022-10-05T20:48:29.410Z,1.20
2022-10-05T20:51:32.108Z,1.30
2022-10-05T20:54:35.944Z,1.30
2022-10-05T20:57:41.793Z,1.10
2022-10-05T21:01:02.801Z,1.20
2022-10-05T21:04:06.760Z,1.38
2022-10-05T21:07:09.458Z,1.10
2022-10-05T21:10:16.822Z,1.30
2022-10-05T21:13:19.088Z,1.40
2022-10-05T21:16:21.417Z,1.15
2022-10-05T21:19:23.623Z,1.40
2022-10-05T21:22:25.740Z,1.52
2022-10-05T21:25:33.381Z,1.30
2022-10-05T21:29:11.545Z,1.65
2022-10-05T21:33:06.372Z,1.25
2022-10-05T21:37:15.757Z,1.17
2022-10-05T21:40:51.812Z,1.50
2022-10-05T21:44:12.404Z,1.75
2022-10-05T21:47:50.126Z,1.48
2022-10-05T21:51:14.515Z,1.77
2022-10-05T21:59:05.050Z,1.50
2022-10-05T22:03:11.943Z,1.40
2022-10-05T22:06:40.751Z,1.98
2022-10-05T22:18:55.792Z,1.80
2022-10-05T22:22:14.412Z,1.98
2022-10-05T22:30:00.648Z,0.60
2022-10-05T22:34:12.592Z,0.55
2022-10-05T22:38:14.718Z,0.40
2022-10-05T22:42:03.833Z,0.60
2022-10-05T22:50:16.056Z,0.43
2022-10-05T22:54:04.393Z,0.70
2022-10-05T23:00:58.416Z,0.50
2022-10-05T23:04:21.539Z,0.65
2022-10-05T23:07:41.285Z,0.40
2022-10-05T23:11:25.091Z,0.50
2022-10-05T23:14:42.942Z,1.42
2022-10-05T23:18:02.626Z,0.90
2022-10-05T23:21:25.813Z,0.45
2022-10-05T23:24:31.621Z,0.98
2022-10-05T23:27:44.085Z,0.70
2022-10-05T23:30:57.229Z,0.60
2022-10-05T23:34:13.620Z,0.50
2022-10-05T23:37:22.793Z,0.47
